sensor_id;sensor_type;location;lat;lon;timestamp;pressure;altitude;pressure_sealevel;temperature;humidity
36598;BME280;22607;49.550;11.940;2023-04-07T00:01:35;96926.59;;;0.42;95.88
36598;BME280;22607;49.550;11.940;2023-04-07T00:04:01;96934.47;;;0.27;96.51
36598;BME280;22607;49.550;11.940;2023-04-07T00:06:29;96920.00;;;0.24;97.00
36598;BME280;22607;49.550;11.940;2023-04-07T00:08:55;96920.38;;;0.44;94.80
36598;BME280;22607;49.550;11.940;2023-04-07T00:11:21;96921.91;;;0.60;94.15
36598;BME280;22607;49.550;11.940;2023-04-07T00:13:48;96917.06;;;0.55;92.91
36598;BME280;22607;49.550;11.940;2023-04-07T00:16:14;96917.94;;;0.30;96.09
36598;BME280;22607;49.550;11.940;2023-04-07T00:18:41;96923.00;;;0.31;95.85
36598;BME280;22607;49.550;11.940;2023-04-07T00:21:07;96922.47;;;0.39;94.67
36598;BME280;22607;49.550;11.940;2023-04-07T00:23:33;96922.66;;;0.49;93.26
36598;BME280;22607;49.550;11.940;2023-04-07T00:26:00;96920.69;;;0.52;93.00
36598;BME280;22607;49.550;11.940;2023-04-07T00:28:26;96916.25;;;0.42;95.42
36598;BME280;22607;49.550;11.940;2023-04-07T00:30:52;96912.34;;;0.36;92.27
36598;BME280;22607;49.550;11.940;2023-04-07T00:33:19;96911.22;;;0.40;92.58
36598;BME280;22607;49.550;11.940;2023-04-07T00:35:45;96906.25;;;0.37;92.72
36598;BME280;22607;49.550;11.940;2023-04-07T00:38:11;96908.84;;;0.37;92.14
36598;BME280;22607;49.550;11.940;2023-04-07T00:40:38;96907.47;;;0.44;91.43
36598;BME280;22607;49.550;11.940;2023-04-07T00:43:04;96907.09;;;0.37;92.60
36598;BME280;22607;49.550;11.940;2023-04-07T00:45:31;96906.56;;;0.32;93.65
36598;BME280;22607;49.550;11.940;2023-04-07T00:47:57;96899.84;;;0.30;95.54
36598;BME280;22607;49.550;11.940;2023-04-07T00:50:24;96903.69;;;0.11;98.08
36598;BME280;22607;49.550;11.940;2023-04-07T00:52:51;96905.44;;;-0.03;99.84
36598;BME280;22607;49.550;11.940;2023-04-07T00:55:18;96902.34;;;-0.08;100.00
36598;BME280;22607;49.550;11.940;2023-04-07T00:57:45;96900.41;;;0.09;99.44
36598;BME280;22607;49.550;11.940;2023-04-07T01:00:12;96894.59;;;0.18;98.25
36598;BME280;22607;49.550;11.940;2023-04-07T01:02:55;96888.19;;;0.11;98.55
36598;BME280;22607;49.550;11.940;2023-04-07T01:05:29;96888.00;;;0.01;99.33
36598;BME280;22607;49.550;11.940;2023-04-07T01:10:41;96892.66;;;-0.04;99.07
36598;BME280;22607;49.550;11.940;2023-04-07T01:13:17;96884.69;;;-0.01;99.01
36598;BME280;22607;49.550;11.940;2023-04-07T01:15:48;96883.88;;;0.11;97.42
36598;BME280;22607;49.550;11.940;2023-04-07T01:18:16;96875.50;;;-0.05;99.78
36598;BME280;22607;49.550;11.940;2023-04-07T01:20:45;96881.00;;;-0.23;99.74
36598;BME280;22607;49.550;11.940;2023-04-07T01:23:16;96878.53;;;-0.24;100.00
36598;BME280;22607;49.550;11.940;2023-04-07T01:31:13;96885.84;;;-0.18;100.00
36598;BME280;22607;49.550;11.940;2023-04-07T01:33:42;96879.53;;;-0.14;99.79
36598;BME280;22607;49.550;11.940;2023-04-07T01:36:09;96883.78;;;-0.39;100.00
36598;BME280;22607;49.550;11.940;2023-04-07T01:38:36;96880.59;;;-0.30;100.00
36598;BME280;22607;49.550;11.940;2023-04-07T01:41:03;96880.06;;;-0.22;100.00
36598;BME280;22607;49.550;11.940;2023-04-07T01:43:31;96876.75;;;-0.11;99.37
36598;BME280;22607;49.550;11.940;2023-04-07T01:45:58;96870.25;;;-0.30;100.00
36598;BME280;22607;49.550;11.940;2023-04-07T01:48:26;96873.56;;;-0.28;99.46
36598;BME280;22607;49.550;11.940;2023-04-07T01:50:53;96873.34;;;-0.24;100.00
36598;BME280;22607;49.550;11.940;2023-04-07T01:53:20;96874.50;;;-0.29;100.00
36598;BME280;22607;49.550;11.940;2023-04-07T01:55:48;96876.75;;;-0.63;100.00
36598;BME280;22607;49.550;11.940;2023-04-07T01:58:14;96876.03;;;-0.39;100.00
36598;BME280;22607;49.550;11.940;2023-04-07T02:00:42;96872.72;;;-0.15;98.75
36598;BME280;22607;49.550;11.940;2023-04-07T02:03:17;96865.91;;;-0.42;100.00
36598;BME280;22607;49.550;11.940;2023-04-07T02:05:49;96868.38;;;-0.28;100.00
36598;BME280;22607;49.550;11.940;2023-04-07T02:08:17;96849.91;;;-0.21;100.00
36598;BME280;22607;49.550;11.940;2023-04-07T02:10:45;96849.19;;;-0.23;100.00
36598;BME280;22607;49.550;11.940;2023-04-07T02:13:14;96857.44;;;-0.18;100.00
36598;BME280;22607;49.550;11.940;2023-04-07T02:15:42;96858.69;;;-0.37;100.00
36598;BME280;22607;49.550;11.940;2023-04-07T02:18:11;96854.56;;;-0.40;100.00
36598;BME280;22607;49.550;11.940;2023-04-07T02:20:38;96861.47;;;-0.53;100.00
36598;BME280;22607;49.550;11.940;2023-04-07T02:23:06;96852.28;;;-0.57;100.00
36598;BME280;22607;49.550;11.940;2023-04-07T02:25:33;96854.94;;;-0.59;100.00
36598;BME280;22607;49.550;11.940;2023-04-07T02:27:59;96856.31;;;-0.40;100.00
36598;BME280;22607;49.550;11.940;2023-04-07T02:30:27;96850.53;;;-0.31;100.00
36598;BME280;22607;49.550;11.940;2023-04-07T02:32:54;96845.47;;;-0.32;100.00
36598;BME280;22607;49.550;11.940;2023-04-07T02:35:20;96850.22;;;-0.39;100.00
36598;BME280;22607;49.550;11.940;2023-04-07T02:37:47;96860.31;;;-0.62;100.00
36598;BME280;22607;49.550;11.940;2023-04-07T02:40:14;96855.69;;;-0.57;100.00
36598;BME280;22607;49.550;11.940;2023-04-07T02:42:41;96852.06;;;-0.67;100.00
36598;BME280;22607;49.550;11.940;2023-04-07T02:45:08;96848.97;;;-0.72;100.00
36598;BME280;22607;49.550;11.940;2023-04-07T02:47:35;96845.47;;;-0.71;100.00
36598;BME280;22607;49.550;11.940;2023-04-07T02:50:02;96850.47;;;-0.83;100.00
36598;BME280;22607;49.550;11.940;2023-04-07T02:52:28;96847.28;;;-0.73;100.00
36598;BME280;22607;49.550;11.940;2023-04-07T02:54:55;96854.50;;;-0.78;100.00
36598;BME280;22607;49.550;11.940;2023-04-07T02:57:21;96847.81;;;-0.81;100.00
36598;BME280;22607;49.550;11.940;2023-04-07T02:59:47;96838.66;;;-0.72;100.00
36598;BME280;22607;49.550;11.940;2023-04-07T03:02:14;96838.50;;;-0.84;100.00
36598;BME280;22607;49.550;11.940;2023-04-07T03:04:40;96841.53;;;-0.77;100.00
36598;BME280;22607;49.550;11.940;2023-04-07T03:07:07;96833.16;;;-0.81;100.00
36598;BME280;22607;49.550;11.940;2023-04-07T03:09:33;96831.94;;;-0.62;100.00
36598;BME280;22607;49.550;11.940;2023-04-07T03:12:00;96837.72;;;-0.58;100.00
36598;BME280;22607;49.550;11.940;2023-04-07T03:14:27;96831.63;;;-0.57;100.00
36598;BME280;22607;49.550;11.940;2023-04-07T03:16:53;96833.28;;;-0.56;100.00
36598;BME280;22607;49.550;11.940;2023-04-07T03:19:20;96830.59;;;-0.55;100.00
36598;BME280;22607;49.550;11.940;2023-04-07T03:21:46;96826.69;;;-0.60;100.00
36598;BME280;22607;49.550;11.940;2023-04-07T03:24:12;96821.13;;;-0.67;100.00
36598;BME280;22607;49.550;11.940;2023-04-07T03:26:39;96826.88;;;-0.76;100.00
36598;BME280;22607;49.550;11.940;2023-04-07T03:29:05;96828.63;;;-0.77;100.00
36598;BME280;22607;49.550;11.940;2023-04-07T03:31:32;96832.03;;;-0.76;100.00
36598;BME280;22607;49.550;11.940;2023-04-07T03:33:58;96828.00;;;-0.81;100.00
36598;BME280;22607;49.550;11.940;2023-04-07T03:36:24;96830.06;;;-0.86;100.00
36598;BME280;22607;49.550;11.940;2023-04-07T03:38:53;96814.47;;;-0.97;100.00
36598;BME280;22607;49.550;11.940;2023-04-07T03:41:19;96823.78;;;-0.82;100.00
36598;BME280;22607;49.550;11.940;2023-04-07T03:43:46;96821.06;;;-0.80;100.00
36598;BME280;22607;49.550;11.940;2023-04-07T03:46:12;96823.38;;;-0.75;100.00
36598;BME280;22607;49.550;11.940;2023-04-07T03:48:39;96824.38;;;-0.91;100.00
36598;BME280;22607;49.550;11.940;2023-04-07T03:51:06;96830.78;;;-0.84;100.00
36598;BME280;22607;49.550;11.940;2023-04-07T03:53:33;96817.16;;;-0.86;100.00
36598;BME280;22607;49.550;11.940;2023-04-07T03:55:59;96827.22;;;-1.09;100.00
36598;BME280;22607;49.550;11.940;2023-04-07T03:58:26;96822.41;;;-1.00;100.00
36598;BME280;22607;49.550;11.940;2023-04-07T04:00:52;96819.72;;;-0.99;100.00
36598;BME280;22607;49.550;11.940;2023-04-07T04:03:19;96823.22;;;-1.00;100.00
36598;BME280;22607;49.550;11.940;2023-04-07T04:05:46;96820.19;;;-1.20;100.00
36598;BME280;22607;49.550;11.940;2023-04-07T04:08:12;96818.53;;;-1.21;100.00
36598;BME280;22607;49.550;11.940;2023-04-07T04:10:44;96823.47;;;-1.17;100.00
36598;BME280;22607;49.550;11.940;2023-04-07T04:13:10;96823.47;;;-1.17;100.00
36598;BME280;22607;49.550;11.940;2023-04-07T04:15:36;96818.28;;;-1.30;100.00
36598;BME280;22607;49.550;11.940;2023-04-07T04:18:03;96809.13;;;-1.22;100.00
36598;BME280;22607;49.550;11.940;2023-04-07T04:20:29;96815.72;;;-1.30;100.00
36598;BME280;22607;49.550;11.940;2023-04-07T04:22:57;96817.00;;;-1.23;100.00
36598;BME280;22607;49.550;11.940;2023-04-07T04:25:23;96820.34;;;-1.36;100.00
36598;BME280;22607;49.550;11.940;2023-04-07T04:27:49;96816.47;;;-1.28;100.00
36598;BME280;22607;49.550;11.940;2023-04-07T04:30:16;96813.31;;;-1.34;100.00
36598;BME280;22607;49.550;11.940;2023-04-07T04:32:42;96812.72;;;-1.37;100.00
36598;BME280;22607;49.550;11.940;2023-04-07T04:35:09;96809.00;;;-1.33;100.00
36598;BME280;22607;49.550;11.940;2023-04-07T04:37:36;96813.81;;;-1.41;100.00
36598;BME280;22607;49.550;11.940;2023-04-07T04:40:02;96811.03;;;-1.51;100.00
36598;BME280;22607;49.550;11.940;2023-04-07T04:42:29;96808.09;;;-1.60;100.00
36598;BME280;22607;49.550;11.940;2023-04-07T04:44:56;96812.44;;;-1.47;100.00
36598;BME280;22607;49.550;11.940;2023-04-07T04:47:23;96813.72;;;-1.40;100.00
36598;BME280;22607;49.550;11.940;2023-04-07T04:49:49;96813.88;;;-1.56;100.00
36598;BME280;22607;49.550;11.940;2023-04-07T04:52:16;96820.31;;;-1.49;100.00
36598;BME280;22607;49.550;11.940;2023-04-07T04:54:42;96818.28;;;-1.30;100.00
36598;BME280;22607;49.550;11.940;2023-04-07T04:57:16;96818.69;;;-1.37;100.00
36598;BME280;22607;49.550;11.940;2023-04-07T04:59:42;96821.06;;;-1.34;100.00
36598;BME280;22607;49.550;11.940;2023-04-07T05:02:08;96815.53;;;-1.27;100.00
36598;BME280;22607;49.550;11.940;2023-04-07T05:04:36;96821.81;;;-1.32;100.00
36598;BME280;22607;49.550;11.940;2023-04-07T05:07:03;96818.09;;;-1.27;100.00
36598;BME280;22607;49.550;11.940;2023-04-07T05:09:30;96817.94;;;-1.11;100.00
36598;BME280;22607;49.550;11.940;2023-04-07T05:11:56;96821.94;;;-1.20;100.00
36598;BME280;22607;49.550;11.940;2023-04-07T05:14:23;96811.81;;;-0.70;100.00
36598;BME280;22607;49.550;11.940;2023-04-07T05:16:49;96807.38;;;-0.29;100.00
36598;BME280;22607;49.550;11.940;2023-04-07T05:19:16;96813.66;;;0.31;98.91
36598;BME280;22607;49.550;11.940;2023-04-07T05:21:44;96816.44;;;0.65;93.77
36598;BME280;22607;49.550;11.940;2023-04-07T05:24:10;96815.38;;;0.92;90.70
36598;BME280;22607;49.550;11.940;2023-04-07T05:26:37;96807.16;;;1.46;86.73
36598;BME280;22607;49.550;11.940;2023-04-07T05:29:03;96807.53;;;1.75;82.82
36598;BME280;22607;49.550;11.940;2023-04-07T05:31:30;96806.00;;;1.84;84.07
36598;BME280;22607;49.550;11.940;2023-04-07T05:33:56;96801.63;;;2.07;81.90
36598;BME280;22607;49.550;11.940;2023-04-07T05:36:23;96806.59;;;2.55;77.02
36598;BME280;22607;49.550;11.940;2023-04-07T05:38:49;96808.91;;;3.02;73.45
36598;BME280;22607;49.550;11.940;2023-04-07T05:41:16;96805.25;;;3.26;70.74
36598;BME280;22607;49.550;11.940;2023-04-07T05:43:43;96803.47;;;3.05;70.70
36598;BME280;22607;49.550;11.940;2023-04-07T05:46:09;96791.28;;;4.11;67.66
36598;BME280;22607;49.550;11.940;2023-04-07T05:48:36;96788.78;;;4.90;63.07
36598;BME280;22607;49.550;11.940;2023-04-07T05:51:02;96795.19;;;5.15;61.56
36598;BME280;22607;49.550;11.940;2023-04-07T05:53:29;96787.72;;;5.60;60.31
36598;BME280;22607;49.550;11.940;2023-04-07T05:55:55;96794.66;;;5.79;59.00
36598;BME280;22607;49.550;11.940;2023-04-07T05:58:21;96790.16;;;5.71;59.14
36598;BME280;22607;49.550;11.940;2023-04-07T06:00:48;96787.63;;;6.46;56.88
36598;BME280;22607;49.550;11.940;2023-04-07T06:03:15;96790.72;;;6.77;55.99
36598;BME280;22607;49.550;11.940;2023-04-07T06:05:44;96785.78;;;6.74;55.38
36598;BME280;22607;49.550;11.940;2023-04-07T06:08:10;96789.31;;;6.83;55.56
36598;BME280;22607;49.550;11.940;2023-04-07T06:10:37;96789.16;;;6.85;54.59
36598;BME280;22607;49.550;11.940;2023-04-07T06:13:04;96781.16;;;7.04;53.77
36598;BME280;22607;49.550;11.940;2023-04-07T06:15:31;96782.16;;;7.30;53.87
36598;BME280;22607;49.550;11.940;2023-04-07T06:17:57;96792.28;;;6.88;54.59
36598;BME280;22607;49.550;11.940;2023-04-07T06:20:24;96786.75;;;7.36;52.81
36598;BME280;22607;49.550;11.940;2023-04-07T06:22:53;96785.28;;;7.60;52.53
36598;BME280;22607;49.550;11.940;2023-04-07T06:25:20;96790.34;;;7.08;53.36
36598;BME280;22607;49.550;11.940;2023-04-07T06:27:46;96776.84;;;8.09;52.07
36598;BME280;22607;49.550;11.940;2023-04-07T06:30:12;96773.63;;;8.16;50.23
36598;BME280;22607;49.550;11.940;2023-04-07T06:32:39;96780.78;;;8.13;50.24
36598;BME280;22607;49.550;11.940;2023-04-07T06:35:06;96780.19;;;8.28;49.75
36598;BME280;22607;49.550;11.940;2023-04-07T06:37:33;96781.53;;;8.40;49.67
36598;BME280;22607;49.550;11.940;2023-04-07T06:39:59;96781.84;;;8.37;49.61
36598;BME280;22607;49.550;11.940;2023-04-07T06:42:26;96779.47;;;8.52;48.85
36598;BME280;22607;49.550;11.940;2023-04-07T06:44:52;96782.59;;;8.64;48.98
36598;BME280;22607;49.550;11.940;2023-04-07T06:47:18;96774.94;;;8.88;48.63
36598;BME280;22607;49.550;11.940;2023-04-07T06:49:45;96771.84;;;9.01;48.04
36598;BME280;22607;49.550;11.940;2023-04-07T06:52:11;96772.47;;;9.11;47.59
36598;BME280;22607;49.550;11.940;2023-04-07T06:54:38;96766.72;;;9.24;47.88
36598;BME280;22607;49.550;11.940;2023-04-07T06:57:04;96771.13;;;9.40;47.89
36598;BME280;22607;49.550;11.940;2023-04-07T06:59:37;96769.50;;;9.48;48.02
36598;BME280;22607;49.550;11.940;2023-04-07T07:02:03;96768.91;;;9.85;47.36
36598;BME280;22607;49.550;11.940;2023-04-07T07:04:30;96765.94;;;9.89;46.72
36598;BME280;22607;49.550;11.940;2023-04-07T07:06:57;96771.91;;;9.66;46.38
36598;BME280;22607;49.550;11.940;2023-04-07T07:09:23;96775.13;;;10.24;46.06
36598;BME280;22607;49.550;11.940;2023-04-07T07:11:50;96772.03;;;9.81;45.38
36598;BME280;22607;49.550;11.940;2023-04-07T07:14:17;96783.91;;;9.60;46.21
36598;BME280;22607;49.550;11.940;2023-04-07T07:16:43;96772.31;;;10.03;45.55
36598;BME280;22607;49.550;11.940;2023-04-07T07:19:09;96770.97;;;10.07;45.88
36598;BME280;22607;49.550;11.940;2023-04-07T07:21:36;96774.34;;;10.56;45.78
36598;BME280;22607;49.550;11.940;2023-04-07T07:24:02;96767.59;;;10.61;45.59
36598;BME280;22607;49.550;11.940;2023-04-07T07:26:29;96777.31;;;10.84;45.69
36598;BME280;22607;49.550;11.940;2023-04-07T07:28:55;96773.22;;;10.82;45.21
36598;BME280;22607;49.550;11.940;2023-04-07T07:31:21;96774.50;;;10.86;44.62
36598;BME280;22607;49.550;11.940;2023-04-07T07:33:49;96777.66;;;10.81;45.79
36598;BME280;22607;49.550;11.940;2023-04-07T07:36:16;96776.19;;;10.79;45.55
36598;BME280;22607;49.550;11.940;2023-04-07T07:38:43;96778.72;;;10.95;45.68
36598;BME280;22607;49.550;11.940;2023-04-07T07:41:09;96777.25;;;10.93;46.08
36598;BME280;22607;49.550;11.940;2023-04-07T07:43:36;96778.47;;;10.82;45.50
36598;BME280;22607;49.550;11.940;2023-04-07T07:46:02;96786.84;;;10.77;45.97
36598;BME280;22607;49.550;11.940;2023-04-07T07:48:29;96779.44;;;10.81;45.03
36598;BME280;22607;49.550;11.940;2023-04-07T07:50:55;96775.31;;;11.10;44.98
36598;BME280;22607;49.550;11.940;2023-04-07T07:53:22;96779.72;;;11.33;44.09
36598;BME280;22607;49.550;11.940;2023-04-07T07:55:48;96778.28;;;11.45;45.13
36598;BME280;22607;49.550;11.940;2023-04-07T07:58:14;96771.22;;;11.61;44.00
36598;BME280;22607;49.550;11.940;2023-04-07T08:00:41;96768.94;;;11.88;43.27
36598;BME280;22607;49.550;11.940;2023-04-07T08:03:07;96773.56;;;11.55;41.33
36598;BME280;22607;49.550;11.940;2023-04-07T08:05:34;96773.22;;;11.59;42.18
36598;BME280;22607;49.550;11.940;2023-04-07T08:08:01;96778.22;;;11.15;42.36
36598;BME280;22607;49.550;11.940;2023-04-07T08:10:28;96776.88;;;11.19;43.36
36598;BME280;22607;49.550;11.940;2023-04-07T08:12:54;96773.31;;;11.95;41.60
36598;BME280;22607;49.550;11.940;2023-04-07T08:15:21;96768.47;;;12.29;40.60
36598;BME280;22607;49.550;11.940;2023-04-07T08:17:47;96775.16;;;12.47;41.10
36598;BME280;22607;49.550;11.940;2023-04-07T08:20:13;96771.63;;;12.77;40.17
36598;BME280;22607;49.550;11.940;2023-04-07T08:22:40;96775.41;;;12.89;40.00
36598;BME280;22607;49.550;11.940;2023-04-07T08:25:06;96769.59;;;12.20;41.57
36598;BME280;22607;49.550;11.940;2023-04-07T08:27:33;96768.31;;;12.68;40.84
36598;BME280;22607;49.550;11.940;2023-04-07T08:30:01;96774.63;;;13.17;39.95
36598;BME280;22607;49.550;11.940;2023-04-07T08:32:38;96767.72;;;13.45;39.34
36598;BME280;22607;49.550;11.940;2023-04-07T08:35:06;96766.75;;;13.74;39.08
36598;BME280;22607;49.550;11.940;2023-04-07T08:37:33;96758.06;;;13.87;37.92
36598;BME280;22607;49.550;11.940;2023-04-07T08:39:59;96762.28;;;13.46;38.37
36598;BME280;22607;49.550;11.940;2023-04-07T08:42:27;96760.09;;;13.50;39.53
36598;BME280;22607;49.550;11.940;2023-04-07T08:44:55;96761.75;;;13.29;38.41
36598;BME280;22607;49.550;11.940;2023-04-07T08:47:23;96766.56;;;12.97;39.78
36598;BME280;22607;49.550;11.940;2023-04-07T08:49:51;96755.97;;;13.19;41.01
36598;BME280;22607;49.550;11.940;2023-04-07T08:52:21;96759.56;;;13.61;39.25
36598;BME280;22607;49.550;11.940;2023-04-07T08:54:48;96765.81;;;13.32;38.85
36598;BME280;22607;49.550;11.940;2023-04-07T08:57:15;96758.06;;;13.87;39.06
36598;BME280;22607;49.550;11.940;2023-04-07T08:59:41;96756.09;;;14.03;36.85
36598;BME280;22607;49.550;11.940;2023-04-07T09:02:11;96765.22;;;13.58;37.23
36598;BME280;22607;49.550;11.940;2023-04-07T09:04:37;96762.47;;;13.45;38.29
36598;BME280;22607;49.550;11.940;2023-04-07T09:07:04;96758.66;;;13.47;38.40
36598;BME280;22607;49.550;11.940;2023-04-07T09:09:30;96755.84;;;13.27;38.80
36598;BME280;22607;49.550;11.940;2023-04-07T09:11:57;96756.41;;;13.22;39.13
36598;BME280;22607;49.550;11.940;2023-04-07T09:14:23;96752.41;;;13.55;39.75
36598;BME280;22607;49.550;11.940;2023-04-07T09:16:50;96756.75;;;13.70;38.68
36598;BME280;22607;49.550;11.940;2023-04-07T09:19:16;96755.13;;;13.11;40.11
36598;BME280;22607;49.550;11.940;2023-04-07T09:21:47;96754.88;;;13.35;40.24
36598;BME280;22607;49.550;11.940;2023-04-07T09:29:36;96747.75;;;13.07;39.43
36598;BME280;22607;49.550;11.940;2023-04-07T09:32:03;96747.06;;;13.20;39.90
36598;BME280;22607;49.550;11.940;2023-04-07T09:34:33;96741.31;;;13.67;38.87
36598;BME280;22607;49.550;11.940;2023-04-07T09:37:00;96745.25;;;14.26;37.29
36598;BME280;22607;49.550;11.940;2023-04-07T09:39:26;96743.09;;;13.95;38.84
36598;BME280;22607;49.550;11.940;2023-04-07T09:41:53;96738.72;;;15.05;35.63
36598;BME280;22607;49.550;11.940;2023-04-07T09:44:22;96731.16;;;15.35;35.73
36598;BME280;22607;49.550;11.940;2023-04-07T09:46:54;96734.41;;;15.58;36.40
36598;BME280;22607;49.550;11.940;2023-04-07T09:49:22;96726.00;;;15.74;34.34
36598;BME280;22607;49.550;11.940;2023-04-07T09:51:53;96725.03;;;14.67;32.77
36598;BME280;22607;49.550;11.940;2023-04-07T09:57:02;96713.47;;;15.22;32.95
36598;BME280;22607;49.550;11.940;2023-04-07T09:59:29;96721.00;;;15.32;34.12
36598;BME280;22607;49.550;11.940;2023-04-07T10:01:56;96713.97;;;15.79;32.58
36598;BME280;22607;49.550;11.940;2023-04-07T10:04:23;96718.75;;;15.43;31.77
36598;BME280;22607;49.550;11.940;2023-04-07T10:06:51;96715.25;;;15.56;33.45
36598;BME280;22607;49.550;11.940;2023-04-07T10:09:17;96713.66;;;15.41;32.46
36598;BME280;22607;49.550;11.940;2023-04-07T10:11:44;96712.41;;;15.64;30.54
36598;BME280;22607;49.550;11.940;2023-04-07T10:14:11;96694.38;;;16.00;30.61
36598;BME280;22607;49.550;11.940;2023-04-07T10:16:38;96701.31;;;16.40;32.51
36598;BME280;22607;49.550;11.940;2023-04-07T10:19:05;96695.91;;;16.21;31.13
36598;BME280;22607;49.550;11.940;2023-04-07T10:21:36;96692.34;;;16.02;29.42
36598;BME280;22607;49.550;11.940;2023-04-07T10:24:07;96698.72;;;15.81;30.12
36598;BME280;22607;49.550;11.940;2023-04-07T10:26:34;96698.06;;;15.92;29.08
36598;BME280;22607;49.550;11.940;2023-04-07T10:29:03;96696.06;;;15.81;29.94
36598;BME280;22607;49.550;11.940;2023-04-07T10:31:31;96683.16;;;16.44;29.41
36598;BME280;22607;49.550;11.940;2023-04-07T10:33:58;96687.47;;;15.99;28.71
36598;BME280;22607;49.550;11.940;2023-04-07T10:36:26;96687.06;;;15.95;30.14
36598;BME280;22607;49.550;11.940;2023-04-07T10:44:00;96681.06;;;16.52;29.08
36598;BME280;22607;49.550;11.940;2023-04-07T10:46:52;96678.28;;;16.40;29.86
36598;BME280;22607;49.550;11.940;2023-04-07T10:49:17;96684.09;;;16.17;30.02
36598;BME280;22607;49.550;11.940;2023-04-07T10:51:44;96684.28;;;16.22;29.49
36598;BME280;22607;49.550;11.940;2023-04-07T10:54:30;96681.34;;;15.98;29.77
36598;BME280;22607;49.550;11.940;2023-04-07T10:57:10;96673.84;;;15.95;29.86
36598;BME280;22607;49.550;11.940;2023-04-07T10:59:39;96678.22;;;15.42;31.97
36598;BME280;22607;49.550;11.940;2023-04-07T11:04:43;96685.03;;;15.84;32.34
36598;BME280;22607;49.550;11.940;2023-04-07T11:07:11;96671.31;;;16.46;32.51
36598;BME280;22607;49.550;11.940;2023-04-07T11:09:39;96669.44;;;16.79;31.07
36598;BME280;22607;49.550;11.940;2023-04-07T11:12:05;96659.16;;;16.64;29.77
36598;BME280;22607;49.550;11.940;2023-04-07T11:14:32;96671.41;;;16.33;30.02
36598;BME280;22607;49.550;11.940;2023-04-07T11:16:59;96663.78;;;16.43;32.24
36598;BME280;22607;49.550;11.940;2023-04-07T11:19:28;96668.28;;;16.04;31.49
36598;BME280;22607;49.550;11.940;2023-04-07T11:22:29;96669.72;;;16.06;30.25
36598;BME280;22607;49.550;11.940;2023-04-07T11:24:55;96667.84;;;16.07;32.10
36598;BME280;22607;49.550;11.940;2023-04-07T11:27:21;96660.19;;;16.63;30.08
36598;BME280;22607;49.550;11.940;2023-04-07T11:29:48;96656.16;;;16.53;31.01
36598;BME280;22607;49.550;11.940;2023-04-07T11:32:21;96658.16;;;16.65;30.46
36598;BME280;22607;49.550;11.940;2023-04-07T11:34:50;96656.25;;;16.40;29.51
36598;BME280;22607;49.550;11.940;2023-04-07T11:37:18;96664.19;;;16.08;29.20
36598;BME280;22607;49.550;11.940;2023-04-07T11:39:50;96664.63;;;16.05;30.03
36598;BME280;22607;49.550;11.940;2023-04-07T11:42:29;96667.09;;;15.99;30.24
36598;BME280;22607;49.550;11.940;2023-04-07T11:44:56;96658.88;;;15.62;30.04
36598;BME280;22607;49.550;11.940;2023-04-07T11:47:32;96659.22;;;15.72;29.77
36598;BME280;22607;49.550;11.940;2023-04-07T11:49:59;96665.34;;;15.59;31.17
36598;BME280;22607;49.550;11.940;2023-04-07T11:52:26;96662.25;;;15.83;31.39
36598;BME280;22607;49.550;11.940;2023-04-07T11:54:52;96657.75;;;15.90;29.84
36598;BME280;22607;49.550;11.940;2023-04-07T11:57:25;96653.50;;;15.75;32.04
36598;BME280;22607;49.550;11.940;2023-04-07T12:00:08;96662.97;;;15.44;32.15
36598;BME280;22607;49.550;11.940;2023-04-07T12:02:36;96655.53;;;15.80;31.67
36598;BME280;22607;49.550;11.940;2023-04-07T12:05:03;96656.09;;;15.89;30.78
36598;BME280;22607;49.550;11.940;2023-04-07T12:07:30;96659.44;;;16.23;31.73
36598;BME280;22607;49.550;11.940;2023-04-07T12:09:56;96647.16;;;15.97;33.68
36598;BME280;22607;49.550;11.940;2023-04-07T12:12:29;96654.78;;;16.12;32.23
36598;BME280;22607;49.550;11.940;2023-04-07T12:14:58;96647.13;;;16.61;31.32
36598;BME280;22607;49.550;11.940;2023-04-07T12:17:25;96642.13;;;16.21;30.88
36598;BME280;22607;49.550;11.940;2023-04-07T12:19:52;96642.91;;;16.21;28.82
36598;BME280;22607;49.550;11.940;2023-04-07T12:22:18;96638.19;;;15.84;32.24
36598;BME280;22607;49.550;11.940;2023-04-07T12:24:45;96645.50;;;15.89;32.90
36598;BME280;22607;49.550;11.940;2023-04-07T12:27:11;96636.53;;;16.29;31.11
36598;BME280;22607;49.550;11.940;2023-04-07T12:29:38;96635.75;;;16.61;29.71
36598;BME280;22607;49.550;11.940;2023-04-07T12:32:04;96637.53;;;16.35;29.60
36598;BME280;22607;49.550;11.940;2023-04-07T12:34:30;96637.66;;;16.14;30.47
36598;BME280;22607;49.550;11.940;2023-04-07T12:36:57;96640.09;;;16.16;34.59
36598;BME280;22607;49.550;11.940;2023-04-07T12:39:23;96633.19;;;16.47;30.48
36598;BME280;22607;49.550;11.940;2023-04-07T12:41:49;96634.22;;;16.46;30.63
36598;BME280;22607;49.550;11.940;2023-04-07T12:44:18;96640.34;;;16.08;30.27
36598;BME280;22607;49.550;11.940;2023-04-07T12:46:44;96636.66;;;16.41;32.14
36598;BME280;22607;49.550;11.940;2023-04-07T12:49:11;96638.81;;;16.25;29.16
36598;BME280;22607;49.550;11.940;2023-04-07T12:51:37;96626.75;;;16.62;29.01
36598;BME280;22607;49.550;11.940;2023-04-07T12:54:05;96630.00;;;16.32;29.29
36598;BME280;22607;49.550;11.940;2023-04-07T12:56:31;96631.06;;;16.24;29.26
36598;BME280;22607;49.550;11.940;2023-04-07T12:58:58;96634.47;;;16.06;29.67
36598;BME280;22607;49.550;11.940;2023-04-07T13:01:24;96629.00;;;16.00;30.15
36598;BME280;22607;49.550;11.940;2023-04-07T13:03:51;96629.66;;;15.75;28.65
36598;BME280;22607;49.550;11.940;2023-04-07T13:06:18;96634.56;;;15.79;32.47
36598;BME280;22607;49.550;11.940;2023-04-07T13:08:44;96634.72;;;16.30;32.08
36598;BME280;22607;49.550;11.940;2023-04-07T13:11:10;96631.50;;;16.27;31.26
36598;BME280;22607;49.550;11.940;2023-04-07T13:13:37;96631.97;;;16.11;30.52
36598;BME280;22607;49.550;11.940;2023-04-07T13:16:03;96628.22;;;16.25;29.87